Time;durP1;ratioP1;P1;durP2;ratioP2;P2;SDS_P1;SDS_P2;PMS_P1;PMS_P2;Temp;Humidity;BMP_temperature;BMP_pressure;BME280_temperature;BME280_humidity;BME280_pressure;Samples;Min_cycle;Max_cycle;Signal;HPM_P1;HPM_P2
2020/12/19 00:01:00;;;;;;;23.75;13.35;;;4.40;99.80;;;;;;4966825;28;20224;-88
2020/12/19 00:03:27;;;;;;;20.60;11.45;;;4.40;99.80;;;;;;4967007;28;20232;-87
2020/12/19 00:05:54;;;;;;;24.17;13.05;;;4.30;99.80;;;;;;4954236;28;20313;-87
2020/12/19 00:08:22;;;;;;;24.05;13.50;;;4.30;99.80;;;;;;4965138;28;20740;-87
2020/12/19 00:10:49;;;;;;;29.65;15.77;;;4.30;99.80;;;;;;4967838;28;20329;-89
2020/12/19 00:13:17;;;;;;;25.55;14.32;;;4.30;99.80;;;;;;4968641;28;20328;-86
2020/12/19 00:15:44;;;;;;;30.35;14.45;;;4.30;99.80;;;;;;4952808;28;20233;-87
2020/12/19 00:18:11;;;;;;;34.63;15.77;;;4.30;99.80;;;;;;4961459;28;20766;-87
2020/12/19 00:20:38;;;;;;;24.08;14.80;;;4.20;99.80;;;;;;4949999;28;20707;-87
2020/12/19 00:23:05;;;;;;;25.77;16.35;;;4.20;99.80;;;;;;4949165;28;20235;-86
2020/12/19 00:25:32;;;;;;;24.67;13.90;;;4.00;99.80;;;;;;4955486;28;20240;-87
2020/12/19 00:27:59;;;;;;;27.02;14.80;;;4.00;99.80;;;;;;4940035;28;20228;-86
2020/12/19 00:30:26;;;;;;;28.35;13.63;;;3.90;99.80;;;;;;4958592;28;20239;-86
2020/12/19 00:32:53;;;;;;;25.65;14.10;;;3.90;99.80;;;;;;4959059;28;20224;-87
2020/12/19 00:35:20;;;;;;;22.00;13.23;;;3.90;99.80;;;;;;4966065;28;20907;-86
2020/12/19 00:37:47;;;;;;;23.65;14.15;;;4.00;99.80;;;;;;4952961;28;20593;-87
2020/12/19 00:40:14;;;;;;;25.33;15.63;;;4.00;99.80;;;;;;4967461;28;20225;-87
2020/12/19 00:42:41;;;;;;;22.15;13.88;;;4.10;99.80;;;;;;4968411;28;20704;-87
2020/12/19 00:45:09;;;;;;;24.35;14.50;;;4.10;99.80;;;;;;4960270;28;20718;-89
2020/12/19 00:47:37;;;;;;;26.13;13.95;;;4.00;99.80;;;;;;4949823;28;20313;-88
2020/12/19 00:50:06;;;;;;;35.17;16.00;;;4.00;99.80;;;;;;4948111;28;20236;-89
2020/12/19 00:52:33;;;;;;;25.77;13.23;;;3.90;99.80;;;;;;4954026;28;20224;-89
2020/12/19 00:55:01;;;;;;;22.75;12.43;;;3.90;99.80;;;;;;4955865;28;20279;-88
2020/12/19 00:57:30;;;;;;;22.77;11.98;;;3.90;99.80;;;;;;4956694;28;21574;-88
2020/12/19 00:59:57;;;;;;;22.98;14.05;;;3.80;99.80;;;;;;4935679;28;20397;-88
2020/12/19 01:02:25;;;;;;;24.38;14.10;;;3.80;99.80;;;;;;4929208;28;20316;-88
2020/12/19 01:05:07;;;;;;;22.00;13.45;;;3.90;99.80;;;;;;4947727;28;20235;-88
2020/12/19 01:07:36;;;;;;;21.95;13.18;;;4.00;99.80;;;;;;4947053;28;20224;-88
2020/12/19 01:10:05;;;;;;;20.23;11.68;;;3.90;99.80;;;;;;4947998;28;20232;-88
2020/12/19 01:12:33;;;;;;;22.20;11.70;;;3.90;99.80;;;;;;4961380;28;20239;-88
2020/12/19 01:15:00;;;;;;;19.75;11.25;;;3.90;99.80;;;;;;4964119;28;20220;-88
2020/12/19 01:17:28;;;;;;;25.08;13.20;;;3.80;99.80;;;;;;4952849;28;20319;-88
2020/12/19 01:19:54;;;;;;;28.63;13.75;;;3.80;99.80;;;;;;4954886;28;20319;-88
2020/12/19 01:22:22;;;;;;;20.92;12.57;;;3.70;99.80;;;;;;4961664;28;20286;-87
2020/12/19 01:24:49;;;;;;;24.75;13.13;;;3.60;99.80;;;;;;4957793;28;20255;-88
2020/12/19 01:27:16;;;;;;;24.02;14.50;;;3.60;99.80;;;;;;4965553;28;20783;-87
2020/12/19 01:29:43;;;;;;;20.15;14.18;;;3.50;99.80;;;;;;4955993;28;20248;-88
2020/12/19 01:32:10;;;;;;;24.42;14.98;;;3.50;99.80;;;;;;4956550;28;20279;-87
2020/12/19 01:34:38;;;;;;;24.30;13.38;;;3.50;99.80;;;;;;4953193;28;20250;-88
2020/12/19 01:37:05;;;;;;;29.88;15.35;;;3.40;99.80;;;;;;4954214;28;20754;-87
2020/12/19 01:39:32;;;;;;;26.17;14.45;;;3.40;99.80;;;;;;4965220;28;20699;-88
2020/12/19 01:41:59;;;;;;;28.40;15.20;;;3.30;99.80;;;;;;4966066;28;20320;-87
2020/12/19 01:44:25;;;;;;;22.50;13.07;;;3.30;99.80;;;;;;4967478;28;20220;-88
2020/12/19 01:46:57;;;;;;;22.52;13.35;;;3.30;99.80;;;;;;4965424;28;20236;-87
2020/12/19 01:49:26;;;;;;;26.42;14.55;;;3.20;99.80;;;;;;4964236;28;20686;-87
2020/12/19 01:51:55;;;;;;;24.88;13.10;;;3.20;99.80;;;;;;4965126;28;20232;-88
2020/12/19 01:54:23;;;;;;;21.13;12.75;;;3.30;99.80;;;;;;4965044;28;20296;-87
2020/12/19 01:56:52;;;;;;;26.27;13.10;;;3.30;99.80;;;;;;4964281;28;20228;-87
2020/12/19 01:59:21;;;;;;;21.95;12.45;;;3.30;99.80;;;;;;4952316;28;20232;-88
2020/12/19 02:01:49;;;;;;;22.23;12.40;;;3.20;99.80;;;;;;4934565;28;20232;-87
2020/12/19 02:04:17;;;;;;;20.65;11.10;;;3.10;99.80;;;;;;4955368;28;20226;-88
2020/12/19 02:06:47;;;;;;;20.15;11.57;;;3.00;99.80;;;;;;4959363;28;20294;-87
2020/12/19 02:09:17;;;;;;;23.08;12.50;;;3.00;99.80;;;;;;4928077;28;20911;-88
2020/12/19 02:11:45;;;;;;;20.80;11.75;;;3.00;99.80;;;;;;4952952;28;20224;-88
2020/12/19 02:14:13;;;;;;;19.58;12.15;;;3.00;99.80;;;;;;4953024;28;20240;-88
2020/12/19 02:16:56;;;;;;;24.42;14.30;;;3.00;99.80;;;;;;4958524;28;20227;-87
2020/12/19 02:19:23;;;;;;;20.17;11.57;;;3.10;99.80;;;;;;4963171;28;20724;-88
2020/12/19 02:21:50;;;;;;;22.98;12.63;;;3.10;99.80;;;;;;4943207;28;20236;-87
2020/12/19 02:24:18;;;;;;;17.77;12.13;;;3.20;99.80;;;;;;4961410;28;20236;-87
2020/12/19 02:26:46;;;;;;;19.40;11.18;;;3.20;99.80;;;;;;4964876;28;20231;-88
2020/12/19 02:29:13;;;;;;;19.98;12.07;;;3.20;99.80;;;;;;4965873;28;20227;-87
2020/12/19 02:31:41;;;;;;;23.65;12.40;;;3.20;99.80;;;;;;4947996;28;20233;-87
2020/12/19 02:34:08;;;;;;;20.70;11.18;;;3.20;99.80;;;;;;4924141;28;20613;-87
2020/12/19 02:36:36;;;;;;;22.85;13.50;;;3.20;99.80;;;;;;4950645;28;20228;-88
2020/12/19 02:39:03;;;;;;;21.45;12.45;;;3.20;99.80;;;;;;4954582;28;20232;-87
2020/12/19 02:41:34;;;;;;;19.73;12.35;;;3.20;99.80;;;;;;4958740;28;20230;-87
2020/12/19 02:44:01;;;;;;;21.38;11.73;;;3.20;99.80;;;;;;4955018;28;20299;-88
2020/12/19 02:46:28;;;;;;;21.10;12.82;;;3.20;99.80;;;;;;4953061;28;20224;-87
2020/12/19 02:48:55;;;;;;;20.95;11.93;;;3.20;99.80;;;;;;4952613;28;20225;-88
2020/12/19 02:51:22;;;;;;;25.08;13.13;;;3.20;99.80;;;;;;4933820;28;20238;-88
2020/12/19 02:53:49;;;;;;;20.50;12.02;;;3.20;99.80;;;;;;4928573;28;20291;-87
2020/12/19 02:56:17;;;;;;;23.00;12.35;;;3.20;99.80;;;;;;4945791;28;20235;-88
2020/12/19 02:58:45;;;;;;;27.67;12.68;;;3.20;99.80;;;;;;4959246;28;20320;-87
2020/12/19 03:01:12;;;;;;;22.48;11.93;;;3.30;99.80;;;;;;4967177;28;20232;-88
2020/12/19 03:03:39;;;;;;;21.05;11.23;;;3.40;99.80;;;;;;4961784;28;20200;-87
2020/12/19 03:06:23;;;;;;;21.40;10.95;;;3.40;99.80;;;;;;4974009;28;20278;-88
2020/12/19 03:08:50;;;;;;;16.35;9.98;;;3.40;99.80;;;;;;4971079;28;20655;-88
2020/12/19 03:11:17;;;;;;;17.17;10.13;;;3.30;99.80;;;;;;4973550;28;20216;-88
2020/12/19 03:13:45;;;;;;;17.20;10.45;;;3.30;99.80;;;;;;4975910;28;20223;-88
2020/12/19 03:16:12;;;;;;;18.58;11.57;;;3.30;99.80;;;;;;4957314;28;20243;-87
2020/12/19 03:18:39;;;;;;;21.50;11.50;;;3.30;99.80;;;;;;4940719;28;20742;-88
2020/12/19 03:21:06;;;;;;;23.42;10.98;;;3.40;99.80;;;;;;4927011;28;20254;-87
2020/12/19 03:23:33;;;;;;;18.50;11.88;;;3.40;99.80;;;;;;4937501;28;20633;-87
2020/12/19 03:26:01;;;;;;;15.98;10.50;;;3.40;99.80;;;;;;4972992;28;20306;-87
2020/12/19 03:28:28;;;;;;;21.83;10.85;;;3.40;99.80;;;;;;4969598;28;20243;-88
2020/12/19 03:30:55;;;;;;;17.63;10.48;;;3.40;99.80;;;;;;4971094;28;20231;-88
2020/12/19 03:33:22;;;;;;;17.13;11.30;;;3.40;99.80;;;;;;4965208;28;20235;-88
2020/12/19 03:35:50;;;;;;;19.88;11.07;;;3.40;99.80;;;;;;4959381;28;20300;-87
2020/12/19 03:38:18;;;;;;;20.02;10.93;;;3.50;99.80;;;;;;4932044;28;20247;-87
2020/12/19 03:40:45;;;;;;;19.45;11.27;;;3.60;99.80;;;;;;4965084;28;20244;-87
2020/12/19 03:43:12;;;;;;;23.63;12.75;;;3.70;99.80;;;;;;4954619;28;20419;-87
2020/12/19 03:45:39;;;;;;;22.88;11.68;;;3.80;99.80;;;;;;4960906;28;20227;-87
2020/12/19 03:48:07;;;;;;;20.50;12.38;;;3.90;99.80;;;;;;4944365;28;20237;-87
2020/12/19 03:50:34;;;;;;;17.95;11.38;;;3.90;99.80;;;;;;4936911;28;20238;-87
2020/12/19 03:53:01;;;;;;;20.35;12.25;;;3.90;99.80;;;;;;4927933;28;20229;-88
2020/12/19 03:55:28;;;;;;;18.02;11.25;;;4.00;99.80;;;;;;4963667;28;21279;-87
2020/12/19 03:57:55;;;;;;;19.55;11.02;;;4.10;99.80;;;;;;4968976;28;20224;-87
2020/12/19 04:00:22;;;;;;;20.75;12.35;;;4.10;99.80;;;;;;4971085;28;20244;-87
2020/12/19 04:02:49;;;;;;;21.95;11.68;;;4.10;99.80;;;;;;4966813;28;20704;-88
2020/12/19 04:05:17;;;;;;;19.67;11.40;;;4.20;99.80;;;;;;4966501;28;20383;-87
2020/12/19 04:07:44;;;;;;;17.42;11.73;;;4.20;99.80;;;;;;4963049;28;20911;-88
2020/12/19 04:10:12;;;;;;;17.30;11.48;;;4.30;99.80;;;;;;4969348;28;20240;-87
2020/12/19 04:12:39;;;;;;;20.30;12.02;;;4.30;99.80;;;;;;4967934;28;20230;-88
2020/12/19 04:15:08;;;;;;;23.65;11.77;;;4.30;99.80;;;;;;4958762;28;20241;-88
2020/12/19 04:17:35;;;;;;;16.83;10.10;;;4.40;99.80;;;;;;4956084;28;20279;-88
2020/12/19 04:20:03;;;;;;;17.08;11.75;;;4.40;99.80;;;;;;4949072;28;20236;-88
2020/12/19 04:22:31;;;;;;;21.23;11.32;;;4.40;99.80;;;;;;4933492;28;20614;-86
2020/12/19 04:24:58;;;;;;;21.08;11.80;;;4.50;99.80;;;;;;4947135;28;20713;-87
2020/12/19 04:27:25;;;;;;;22.63;12.55;;;4.50;99.80;;;;;;4934775;29;20724;-88
2020/12/19 04:29:52;;;;;;;16.58;10.65;;;4.50;99.80;;;;;;4965488;28;20237;-87
2020/12/19 04:32:19;;;;;;;18.63;11.23;;;4.50;99.80;;;;;;4962919;28;20228;-87
2020/12/19 04:34:46;;;;;;;17.08;11.48;;;4.50;99.80;;;;;;4968044;28;20229;-87
2020/12/19 04:37:20;;;;;;;19.50;11.20;;;4.60;99.80;;;;;;4963799;28;20242;-87
2020/12/19 04:39:48;;;;;;;19.42;10.95;;;4.60;99.80;;;;;;4959692;28;20235;-88
2020/12/19 04:42:16;;;;;;;20.45;11.45;;;4.60;99.80;;;;;;4963854;28;20761;-88
2020/12/19 04:44:45;;;;;;;21.33;12.05;;;4.60;99.80;;;;;;4964844;28;20240;-87
2020/12/19 04:47:12;;;;;;;15.30;10.60;;;4.60;99.80;;;;;;4967814;28;20241;-87
2020/12/19 04:49:42;;;;;;;20.55;12.88;;;4.60;99.80;;;;;;4968781;28;20228;-87
2020/12/19 04:52:09;;;;;;;21.05;11.90;;;4.60;99.80;;;;;;4967912;28;22158;-87
2020/12/19 04:54:36;;;;;;;18.38;11.50;;;4.60;99.80;;;;;;4968732;28;20231;-87
2020/12/19 04:57:05;;;;;;;25.63;12.60;;;4.60;99.80;;;;;;4967206;28;20230;-88
2020/12/19 04:59:32;;;;;;;16.33;10.60;;;4.60;99.80;;;;;;4964897;28;20247;-88
2020/12/19 05:02:00;;;;;;;19.40;10.93;;;4.60;99.80;;;;;;4959454;28;20230;-87
2020/12/19 05:04:27;;;;;;;18.17;11.07;;;4.60;99.80;;;;;;4963894;28;20739;-88
2020/12/19 05:06:54;;;;;;;19.70;11.20;;;4.60;99.80;;;;;;4969016;28;20231;-88
2020/12/19 05:09:22;;;;;;;20.30;12.05;;;4.70;99.80;;;;;;4965337;28;20244;-88
2020/12/19 05:11:49;;;;;;;20.45;12.05;;;4.60;99.80;;;;;;4969015;28;20231;-87
2020/12/19 05:14:19;;;;;;;20.23;10.98;;;4.60;99.80;;;;;;4966772;28;20326;-88
2020/12/19 05:16:48;;;;;;;18.92;11.63;;;4.60;99.80;;;;;;4964098;28;20288;-88
2020/12/19 05:19:17;;;;;;;17.60;11.60;;;4.70;99.80;;;;;;4966511;28;20281;-88
2020/12/19 05:21:44;;;;;;;17.33;10.80;;;4.70;99.80;;;;;;4961873;28;20892;-88
2020/12/19 05:24:14;;;;;;;20.23;11.70;;;4.60;99.80;;;;;;4969000;28;20290;-88
2020/12/19 05:26:42;;;;;;;21.02;12.95;;;4.60;99.80;;;;;;4966361;28;20220;-88
2020/12/19 05:29:09;;;;;;;20.83;12.27;;;4.60;99.80;;;;;;4964534;28;20240;-87
2020/12/19 05:31:38;;;;;;;18.05;12.10;;;4.60;99.80;;;;;;4968830;28;20238;-87
2020/12/19 05:34:05;;;;;;;21.75;11.80;;;4.60;99.80;;;;;;4963691;28;20225;-87
2020/12/19 05:36:37;;;;;;;17.48;10.27;;;4.60;99.80;;;;;;4964942;28;20237;-88
2020/12/19 05:39:05;;;;;;;19.15;12.07;;;4.50;99.80;;;;;;4966918;28;20283;-88
2020/12/19 05:41:33;;;;;;;20.05;11.48;;;4.40;99.80;;;;;;4956714;28;20761;-88
2020/12/19 05:44:00;;;;;;;18.60;11.20;;;4.40;99.80;;;;;;4963684;28;20229;-88
2020/12/19 05:46:31;;;;;;;18.90;10.10;;;4.30;99.80;;;;;;4967608;28;20232;-88
2020/12/19 05:49:00;;;;;;;20.25;11.57;;;4.20;99.80;;;;;;4966749;28;20228;-88
2020/12/19 05:51:28;;;;;;;19.85;10.27;;;4.10;99.80;;;;;;4965546;28;20677;-88
2020/12/19 05:54:01;;;;;;;19.52;11.05;;;4.00;99.80;;;;;;4963832;28;20232;-87
2020/12/19 05:56:29;;;;;;;19.70;12.23;;;3.90;99.80;;;;;;4963291;28;20610;-88
2020/12/19 05:59:01;;;;;;;20.88;11.25;;;3.90;99.80;;;;;;4966528;28;20233;-88
2020/12/19 06:01:30;;;;;;;14.60;10.27;;;3.80;99.80;;;;;;4959765;28;20257;-87
2020/12/19 06:04:02;;;;;;;17.95;10.98;;;3.90;99.80;;;;;;4967398;28;20238;-87
2020/12/19 06:06:31;;;;;;;17.17;10.10;;;3.90;99.80;;;;;;4967099;28;20597;-88
2020/12/19 06:08:59;;;;;;;19.00;10.60;;;3.80;99.80;;;;;;4966578;28;20240;-87
2020/12/19 06:11:28;;;;;;;19.75;11.43;;;3.80;99.80;;;;;;4955756;28;20227;-88
2020/12/19 06:13:59;;;;;;;19.50;11.52;;;3.80;99.80;;;;;;4957387;28;20231;-87
2020/12/19 06:16:28;;;;;;;20.77;11.68;;;3.80;99.80;;;;;;4960962;28;20313;-88
2020/12/19 06:19:14;;;;;;;29.75;17.35;;;3.80;99.80;;;;;;4966808;28;20604;-87
2020/12/19 06:21:47;;;;;;;22.77;13.57;;;3.80;99.80;;;;;;4958593;28;20227;-87
2020/12/19 06:24:42;;;;;;;22.77;13.07;;;3.80;99.80;;;;;;4957038;28;20236;-87
2020/12/19 06:27:41;;;;;;;22.80;14.15;;;3.90;99.80;;;;;;4967334;28;20243;-87
2020/12/19 06:30:27;;;;;;;52.75;34.20;;;3.90;99.80;;;;;;4963505;28;20237;-87
2020/12/19 06:33:08;;;;;;;28.05;18.15;;;4.00;99.80;;;;;;4962555;28;20225;-88
2020/12/19 06:35:37;;;;;;;15.18;10.98;;;4.00;99.80;;;;;;4968099;28;20242;-88
2020/12/19 06:38:04;;;;;;;20.85;12.30;;;4.10;99.80;;;;;;4968420;28;20234;-88
2020/12/19 06:40:38;;;;;;;16.85;10.55;;;4.00;99.80;;;;;;4958647;28;20229;-88
2020/12/19 06:43:15;;;;;;;16.63;10.02;;;4.10;99.80;;;;;;4924302;28;20591;-88
2020/12/19 06:45:42;;;;;;;15.82;10.90;;;4.10;99.80;;;;;;4941162;28;20228;-88
2020/12/19 06:48:33;;;;;;;20.95;12.27;;;4.10;99.80;;;;;;4938546;28;20281;-88
2020/12/19 06:51:02;;;;;;;23.05;15.60;;;4.10;99.80;;;;;;4922731;28;20308;-89
2020/12/19 06:53:30;;;;;;;18.20;12.30;;;4.00;99.80;;;;;;4929520;28;20251;-88
2020/12/19 06:55:58;;;;;;;16.30;10.32;;;3.90;99.80;;;;;;4964949;28;21188;-89
2020/12/19 06:58:33;;;;;;;17.85;11.40;;;3.80;99.80;;;;;;4961718;28;20222;-87
2020/12/19 07:01:22;;;;;;;17.10;11.38;;;3.80;99.80;;;;;;4961070;28;20237;-87
2020/12/19 07:03:49;;;;;;;25.90;12.18;;;3.80;99.80;;;;;;4956862;28;20253;-86
2020/12/19 07:06:17;;;;;;;19.75;10.68;;;3.80;99.80;;;;;;4958740;28;20286;-86
2020/12/19 07:08:50;;;;;;;17.77;11.80;;;3.80;99.80;;;;;;4965018;28;20239;-87
2020/12/19 07:11:40;;;;;;;19.30;11.23;;;3.80;99.80;;;;;;4955448;28;20232;-87
2020/12/19 07:14:15;;;;;;;18.25;11.60;;;3.70;99.80;;;;;;4897274;28;20653;-86
2020/12/19 07:16:47;;;;;;;19.88;10.60;;;3.70;99.80;;;;;;4898944;28;20239;-86
2020/12/19 07:19:16;;;;;;;16.52;11.40;;;3.60;99.80;;;;;;4922289;28;20243;-87
2020/12/19 07:21:44;;;;;;;16.05;11.30;;;3.60;99.80;;;;;;4917941;28;20229;-86
2020/12/19 07:24:12;;;;;;;22.63;13.45;;;3.50;99.80;;;;;;4929812;28;20312;-86
2020/12/19 07:26:39;;;;;;;25.45;17.02;;;3.50;99.80;;;;;;4953673;28;20223;-87
2020/12/19 07:29:17;;;;;;;26.48;15.07;;;3.50;99.80;;;;;;4966195;28;20645;-87
2020/12/19 07:31:49;;;;;;;20.02;13.25;;;3.40;99.80;;;;;;4961895;28;20226;-86
2020/12/19 07:34:18;;;;;;;20.08;12.48;;;3.40;99.80;;;;;;4964070;28;20232;-86
2020/12/19 07:36:50;;;;;;;19.05;11.43;;;3.40;99.80;;;;;;4962227;28;20224;-85
2020/12/19 07:39:18;;;;;;;26.88;14.52;;;3.40;99.80;;;;;;4964635;28;20620;-86
2020/12/19 07:42:01;;;;;;;21.50;14.40;;;3.40;99.80;;;;;;4962161;28;20229;-86
2020/12/19 07:44:28;;;;;;;20.05;12.35;;;3.40;99.80;;;;;;4938537;28;20227;-86
2020/12/19 07:46:57;;;;;;;20.83;11.73;;;3.40;99.80;;;;;;4911396;28;20237;-86
2020/12/19 07:49:30;;;;;;;22.98;13.02;;;3.50;99.80;;;;;;4915855;28;20232;-86
2020/12/19 07:52:19;;;;;;;20.05;13.20;;;3.50;99.80;;;;;;4938283;28;20656;-86
2020/12/19 07:54:54;;;;;;;20.30;12.80;;;3.60;99.80;;;;;;4931759;28;20234;-87
2020/12/19 07:57:21;;;;;;;24.17;13.68;;;3.60;99.80;;;;;;4964561;28;20898;-85
2020/12/19 07:59:49;;;;;;;20.58;11.70;;;3.60;99.80;;;;;;4968135;28;20282;-86
2020/12/19 08:02:18;;;;;;;19.80;13.05;;;3.70;99.80;;;;;;4964439;28;20229;-85
2020/12/19 08:04:55;;;;;;;22.73;13.77;;;3.80;99.80;;;;;;4967706;28;20258;-86
2020/12/19 08:07:25;;;;;;;22.05;13.57;;;3.90;99.80;;;;;;4965727;28;20248;-86
2020/12/19 08:10:00;;;;;;;24.13;14.00;;;4.00;99.80;;;;;;4965583;28;20234;-86
2020/12/19 08:12:28;;;;;;;19.35;12.98;;;4.10;99.80;;;;;;4968417;28;20238;-86
2020/12/19 08:14:55;;;;;;;25.25;13.93;;;4.20;99.80;;;;;;4955114;28;20311;-86
2020/12/19 08:17:23;;;;;;;20.00;12.43;;;4.20;99.80;;;;;;4939680;28;20239;-86
2020/12/19 08:19:54;;;;;;;20.00;12.25;;;4.30;99.80;;;;;;4925977;28;20246;-86
2020/12/19 08:22:21;;;;;;;21.02;12.52;;;4.30;99.80;;;;;;4923188;28;20232;-87
2020/12/19 08:25:00;;;;;;;22.40;12.52;;;4.30;99.80;;;;;;4915981;28;20228;-85
2020/12/19 08:27:43;;;;;;;20.88;12.00;;;4.30;99.80;;;;;;4940504;28;20232;-85
2020/12/19 08:30:16;;;;;;;18.35;11.85;;;4.30;99.80;;;;;;4931077;28;20257;-86
2020/12/19 08:32:45;;;;;;;21.60;12.90;;;4.40;99.80;;;;;;4937969;28;20748;-86
2020/12/19 08:35:31;;;;;;;23.05;12.75;;;4.50;99.80;;;;;;4936645;28;21110;-85
2020/12/19 08:38:03;;;;;;;19.00;12.32;;;4.50;99.80;;;;;;4944281;28;20250;-85
2020/12/19 08:40:36;;;;;;;18.08;11.95;;;4.50;99.80;;;;;;4964624;28;20252;-85
2020/12/19 08:43:04;;;;;;;21.05;11.73;;;4.50;99.80;;;;;;4966416;28;20233;-85
2020/12/19 08:45:33;;;;;;;19.27;12.27;;;4.60;99.80;;;;;;4965348;28;20630;-86
2020/12/19 08:48:02;;;;;;;19.58;12.95;;;4.80;99.80;;;;;;4968221;28;20251;-86
2020/12/19 08:50:32;;;;;;;19.90;12.52;;;5.00;99.80;;;;;;4968680;28;20233;-86
2020/12/19 08:53:07;;;;;;;19.23;12.45;;;5.20;99.80;;;;;;4954492;28;20715;-86
2020/12/19 08:55:35;;;;;;;22.25;12.85;;;5.40;99.80;;;;;;4962002;28;20228;-86
2020/12/19 08:58:03;;;;;;;18.38;11.90;;;5.60;99.80;;;;;;4936907;28;20297;-86
2020/12/19 09:00:39;;;;;;;18.67;11.48;;;5.70;99.80;;;;;;4924017;28;20263;-86
2020/12/19 09:03:09;;;;;;;16.90;10.98;;;5.80;99.80;;;;;;4923486;28;20973;-87
2020/12/19 09:05:42;;;;;;;17.20;10.48;;;5.80;99.80;;;;;;4924125;28;20228;-85
2020/12/19 09:08:11;;;;;;;16.65;11.05;;;5.80;99.80;;;;;;4921078;28;20233;-86
2020/12/19 09:10:40;;;;;;;17.83;11.48;;;5.90;99.80;;;;;;4946417;28;20240;-86
2020/12/19 09:13:21;;;;;;;18.35;12.25;;;5.90;99.80;;;;;;4963494;28;20322;-86
2020/12/19 09:15:49;;;;;;;20.85;12.85;;;5.90;99.80;;;;;;4962810;28;20241;-86
2020/12/19 09:18:24;;;;;;;23.73;13.48;;;5.90;99.80;;;;;;4963669;28;20239;-86
2020/12/19 09:20:54;;;;;;;19.55;12.68;;;5.90;99.80;;;;;;4962824;28;20715;-86
2020/12/19 09:23:21;;;;;;;18.13;11.48;;;5.90;99.80;;;;;;4958994;28;20316;-86
2020/12/19 09:25:49;;;;;;;16.40;10.77;;;5.80;99.80;;;;;;4964975;28;20257;-85
2020/12/19 09:28:16;;;;;;;17.42;11.60;;;5.70;99.80;;;;;;4945314;28;20370;-86
2020/12/19 09:30:44;;;;;;;17.65;11.10;;;5.60;99.80;;;;;;4942438;28;20228;-86
2020/12/19 09:33:11;;;;;;;16.00;11.77;;;5.50;99.80;;;;;;4915250;28;20234;-85
2020/12/19 09:35:38;;;;;;;17.15;12.30;;;5.50;99.80;;;;;;4921043;28;20236;-86
2020/12/19 09:38:06;;;;;;;17.90;11.98;;;5.50;99.80;;;;;;4924688;28;20779;-84
2020/12/19 09:40:33;;;;;;;17.65;12.00;;;5.50;99.80;;;;;;4969281;28;20237;-83
2020/12/19 09:43:01;;;;;;;17.88;12.32;;;5.50;99.80;;;;;;4970239;28;20241;-85
2020/12/19 09:45:28;;;;;;;17.30;11.32;;;5.60;99.80;;;;;;4969383;28;20601;-83
2020/12/19 09:47:57;;;;;;;15.30;11.20;;;5.60;99.80;;;;;;4969870;28;20234;-86
2020/12/19 09:50:26;;;;;;;16.15;10.70;;;5.60;99.80;;;;;;4969008;28;20723;-84
2020/12/19 09:52:53;;;;;;;15.60;11.35;;;5.70;99.80;;;;;;4968408;28;20231;-84
2020/12/19 09:55:21;;;;;;;15.48;10.90;;;5.80;99.80;;;;;;4970188;28;20235;-86
2020/12/19 09:57:48;;;;;;;18.42;11.10;;;5.80;99.80;;;;;;4970971;28;20606;-84
2020/12/19 10:00:17;;;;;;;17.50;11.45;;;5.80;99.80;;;;;;4930826;28;20233;-85
2020/12/19 10:02:48;;;;;;;20.45;11.77;;;5.90;99.80;;;;;;4908514;28;20316;-85
2020/12/19 10:05:16;;;;;;;16.60;10.95;;;6.00;99.80;;;;;;4919853;28;20236;-84
2020/12/19 10:07:43;;;;;;;19.52;11.65;;;6.00;99.80;;;;;;4934371;28;20225;-86
2020/12/19 10:10:10;;;;;;;16.67;10.93;;;6.00;99.80;;;;;;4926694;28;20238;-85
2020/12/19 10:12:37;;;;;;;16.55;11.20;;;6.00;99.80;;;;;;4927618;28;20716;-86
2020/12/19 10:15:05;;;;;;;17.50;10.60;;;6.10;99.80;;;;;;4938644;28;20251;-83
2020/12/19 10:17:33;;;;;;;19.60;11.60;;;6.10;99.80;;;;;;4926893;28;20242;-84
2020/12/19 10:20:00;;;;;;;18.42;10.38;;;6.20;99.80;;;;;;4919544;28;20627;-86
2020/12/19 10:22:31;;;;;;;15.88;11.43;;;6.30;99.80;;;;;;4927962;28;20799;-85
2020/12/19 10:25:00;;;;;;;17.42;11.57;;;6.40;99.80;;;;;;4948519;28;20230;-85
2020/12/19 10:27:29;;;;;;;15.73;10.45;;;6.40;99.80;;;;;;4949343;28;20239;-86
2020/12/19 10:29:57;;;;;;;18.05;11.68;;;6.50;99.80;;;;;;4931580;28;20599;-84
2020/12/19 10:32:24;;;;;;;17.25;11.50;;;6.50;99.80;;;;;;4931585;28;20705;-84
2020/12/19 10:34:51;;;;;;;16.90;11.45;;;6.60;99.80;;;;;;4937404;28;20226;-86
2020/12/19 10:37:18;;;;;;;16.17;11.20;;;6.80;99.80;;;;;;4915596;28;20238;-84
2020/12/19 10:39:46;;;;;;;16.55;10.70;;;7.00;99.80;;;;;;4937151;28;20609;-86
2020/12/19 10:42:13;;;;;;;17.20;11.23;;;7.10;99.80;;;;;;4919389;28;20239;-86
2020/12/19 10:44:41;;;;;;;18.42;11.48;;;7.20;99.80;;;;;;4920897;28;20230;-86
2020/12/19 10:47:09;;;;;;;18.40;12.60;;;7.30;99.80;;;;;;4932477;28;20257;-85
2020/12/19 10:49:36;;;;;;;17.90;11.40;;;7.30;99.80;;;;;;4913128;28;20747;-85
2020/12/19 10:52:04;;;;;;;19.63;11.00;;;7.40;99.80;;;;;;4919150;28;20234;-85
2020/12/19 10:54:32;;;;;;;14.05;10.65;;;7.50;99.80;;;;;;4943820;28;20244;-85
2020/12/19 10:56:59;;;;;;;17.02;11.75;;;7.60;99.80;;;;;;4955688;28;20230;-86
2020/12/19 10:59:27;;;;;;;16.27;10.23;;;7.70;99.80;;;;;;4952295;28;20305;-85
2020/12/19 11:01:54;;;;;;;19.25;11.82;;;7.90;99.80;;;;;;4952270;28;20637;-85
2020/12/19 11:04:21;;;;;;;14.05;10.02;;;8.20;99.80;;;;;;4951704;28;21584;-85
2020/12/19 11:06:50;;;;;;;14.85;9.85;;;8.40;99.80;;;;;;4951752;28;20310;-85
2020/12/19 11:09:18;;;;;;;13.07;9.73;;;9.70;99.80;;;;;;4951085;28;20243;-86
2020/12/19 11:11:55;;;;;;;13.82;8.52;;;9.80;99.80;;;;;;4944978;28;20239;-84
2020/12/19 11:14:22;;;;;;;12.63;8.77;;;10.80;99.80;;;;;;4930953;28;20377;-85
2020/12/19 11:16:50;;;;;;;12.63;8.57;;;10.80;99.80;;;;;;4919753;28;20263;-86
2020/12/19 11:19:26;;;;;;;13.68;9.82;;;10.70;99.80;;;;;;4924538;28;20286;-86
2020/12/19 11:21:53;;;;;;;13.43;9.65;;;10.10;99.80;;;;;;4935114;28;20242;-85
2020/12/19 11:24:22;;;;;;;15.25;9.82;;;10.10;99.80;;;;;;4950034;28;20234;-86
2020/12/19 11:26:49;;;;;;;14.00;9.55;;;9.90;99.80;;;;;;4953039;28;20230;-85
2020/12/19 11:29:16;;;;;;;11.43;8.32;;;9.70;99.80;;;;;;4955478;28;20306;-86
2020/12/19 11:31:43;;;;;;;13.10;10.05;;;9.40;99.80;;;;;;4955807;28;20235;-87
2020/12/19 11:34:12;;;;;;;14.70;9.32;;;9.10;99.80;;;;;;4955920;28;20724;-86
2020/12/19 11:36:39;;;;;;;14.65;9.73;;;8.80;99.80;;;;;;4955716;28;20235;-85
2020/12/19 11:39:08;;;;;;;16.20;10.00;;;8.40;99.80;;;;;;4955792;28;20248;-84
2020/12/19 11:41:38;;;;;;;14.95;10.32;;;8.40;99.80;;;;;;4949532;28;20669;-85
2020/12/19 11:44:05;;;;;;;14.52;10.57;;;8.40;99.80;;;;;;4941249;28;20241;-85
2020/12/19 11:46:32;;;;;;;14.70;10.00;;;8.50;99.80;;;;;;4934381;28;20289;-84
2020/12/19 11:48:59;;;;;;;18.08;10.43;;;8.60;99.80;;;;;;4940666;28;20224;-85
2020/12/19 11:51:28;;;;;;;18.35;10.85;;;8.80;99.80;;;;;;4923244;28;20231;-84
2020/12/19 11:53:55;;;;;;;13.67;10.10;;;9.10;99.80;;;;;;4936083;28;20227;-85
2020/12/19 11:56:22;;;;;;;16.77;9.40;;;9.40;99.80;;;;;;4934688;28;21020;-85
2020/12/19 11:58:50;;;;;;;13.55;9.60;;;9.70;99.80;;;;;;4925930;28;20490;-85
2020/12/19 12:01:17;;;;;;;12.35;9.20;;;9.70;99.80;;;;;;4923715;28;20884;-85
2020/12/19 12:03:44;;;;;;;13.82;9.60;;;9.60;99.80;;;;;;4933711;28;20621;-84
2020/12/19 12:06:11;;;;;;;13.63;9.87;;;9.50;99.80;;;;;;4925052;28;20239;-86
2020/12/19 12:08:41;;;;;;;14.30;10.40;;;9.40;99.80;;;;;;4925188;28;20577;-85
2020/12/19 12:11:09;;;;;;;13.67;9.70;;;9.50;99.80;;;;;;4945325;28;20474;-85
2020/12/19 12:13:36;;;;;;;12.60;8.83;;;10.20;99.80;;;;;;4952611;28;21041;-85
2020/12/19 12:16:08;;;;;;;9.60;7.80;;;12.40;99.80;;;;;;4929991;28;20554;-86
2020/12/19 12:18:36;;;;;;;12.07;9.20;;;17.90;82.20;;;;;;4931275;28;20531;-86
2020/12/19 12:21:03;;;;;;;13.00;7.73;;;20.30;74.50;;;;;;4936663;28;21693;-86
2020/12/19 12:23:30;;;;;;;10.90;7.63;;;20.30;74.40;;;;;;4921158;28;20483;-84
2020/12/19 12:25:57;;;;;;;11.33;8.53;;;19.50;72.30;;;;;;4944525;28;20490;-85
2020/12/19 12:28:24;;;;;;;9.17;7.40;;;17.70;77.10;;;;;;4933846;28;20520;-85
2020/12/19 12:30:51;;;;;;;11.20;7.90;;;19.20;75.70;;;;;;4912987;28;20852;-84
2020/12/19 12:33:19;;;;;;;10.23;7.57;;;22.40;68.30;;;;;;4914812;28;20470;-85
2020/12/19 12:35:46;;;;;;;13.80;9.30;;;24.70;62.30;;;;;;4921688;28;20476;-85
2020/12/19 12:38:13;;;;;;;10.53;7.90;;;24.80;59.90;;;;;;4919230;28;20486;-87
2020/12/19 12:40:40;;;;;;;10.27;7.40;;;22.80;63.10;;;;;;4955997;28;20476;-84
2020/12/19 12:43:07;;;;;;;9.30;7.73;;;22.00;64.90;;;;;;4952274;28;20982;-84
2020/12/19 12:45:34;;;;;;;8.03;6.43;;;22.70;63.50;;;;;;4951688;28;20555;-87
2020/12/19 12:48:02;;;;;;;14.50;7.90;;;21.90;63.80;;;;;;4919085;28;20482;-86